Time,TemperatureF,DewpointF,PressureIn,WindDirection,WindDirectionDegrees,WindSpeedMPH,WindSpeedGustMPH,Humidity,HourlyPrecipIn,Conditions,Clouds,dailyrainin,SoftwareType,DateUTC
2013-05-03 00:01:00,70.0,26.0,30.04,NW,313,5.0,11.0,19,0.00,,,-99.99,,2013-05-03 07:01:00,
2013-05-03 00:21:00,70.0,28.0,30.04,ENE,63,4.0,5.0,21,0.00,,,0.00,,2013-05-03 07:21:00,
2013-05-03 00:31:00,70.0,25.0,30.04,NE,34,5.0,9.0,18,0.00,,,0.00,,2013-05-03 07:31:00,
2013-05-03 00:52:00,70.0,22.0,30.04,NNW,344,3.0,9.0,16,0.00,,,0.00,,2013-05-03 07:52:00,
2013-05-03 01:01:00,70.0,22.0,30.04,NNE,24,2.0,6.0,16,0.00,,,0.00,,2013-05-03 08:01:00,
2013-05-03 01:31:00,68.0,23.0,30.03,NE,34,1.0,5.0,18,0.00,,,0.00,,2013-05-03 08:31:00,
2013-05-03 01:52:00,69.0,21.0,30.02,NNE,15,2.0,7.0,16,0.00,,,0.00,,2013-05-03 08:52:00,
2013-05-03 02:01:00,69.0,21.0,30.02,NNE,14,3.0,7.0,16,0.00,,,0.00,,2013-05-03 09:01:00,
2013-05-03 02:21:00,70.0,20.0,30.01,NNE,33,3.0,7.0,15,0.00,,,0.00,,2013-05-03 09:21:00,
2013-05-03 02:32:00,70.0,22.0,30.00,ENE,60,3.0,10.0,16,0.00,,,0.00,,2013-05-03 09:32:00,
2013-05-03 02:42:00,70.0,22.0,30.00,ENE,60,3.0,10.0,16,0.00,,,0.00,,2013-05-03 09:42:00,
2013-05-03 02:53:00,69.0,21.0,29.99,NE,45,3.0,9.0,16,0.00,,,0.00,,2013-05-03 09:53:00,
2013-05-03 03:02:00,69.0,22.0,29.99,NE,47,3.0,6.0,17,0.00,,,0.00,,2013-05-03 10:02:00,
2013-05-03 03:22:00,69.0,21.0,29.99,NNE,14,2.0,4.0,16,0.00,,,0.00,,2013-05-03 10:22:00,
2013-05-03 03:32:00,69.0,21.0,29.99,ENE,68,3.0,5.0,16,0.00,,,0.00,,2013-05-03 10:32:00,
2013-05-03 03:52:00,67.0,22.0,29.98,North,350,2.0,6.0,18,0.00,,,0.00,,2013-05-03 10:52:00,
2013-05-03 04:02:00,67.0,21.0,29.98,North,10,3.0,7.0,17,0.00,,,0.00,,2013-05-03 11:02:00,
2013-05-03 04:21:00,68.0,20.0,29.98,North,5,1.0,4.0,16,0.00,,,0.00,,2013-05-03 11:21:00,
2013-05-03 04:31:00,68.0,20.0,29.97,North,360,0.0,3.0,16,0.00,,,0.00,,2013-05-03 11:31:00,
2013-05-03 04:52:00,67.0,19.0,29.97,NNE,15,4.0,8.0,16,0.00,,,0.00,,2013-05-03 11:52:00,
2013-05-03 05:01:00,68.0,19.0,29.96,North,9,3.0,6.0,15,0.00,,,0.00,,2013-05-03 12:01:00,
2013-05-03 05:21:00,69.0,18.0,29.95,NNW,327,1.0,5.0,14,0.00,,,0.00,,2013-05-03 12:21:00,
2013-05-03 05:32:00,68.0,19.0,29.95,NE,51,3.0,6.0,15,0.00,,,0.00,,2013-05-03 12:32:00,
2013-05-03 05:52:00,67.0,19.0,29.95,NE,39,3.0,6.0,16,0.00,,,0.00,,2013-05-03 12:52:00,
2013-05-03 06:01:00,67.0,19.0,29.95,NNE,25,2.0,7.0,16,0.00,,,0.00,,2013-05-03 13:01:00,
2013-05-03 06:22:00,67.0,21.0,29.95,North,360,0.0,0.0,17,0.00,,,0.00,,2013-05-03 13:22:00,
2013-05-03 06:31:00,66.0,21.0,29.95,North,360,0.0,1.0,18,0.00,,,0.00,,2013-05-03 13:31:00,
2013-05-03 06:52:00,64.0,18.0,29.95,North,360,0.0,1.0,17,0.00,,,0.00,,2013-05-03 13:52:00,
2013-05-03 07:01:00,65.0,22.0,29.95,North,360,0.0,0.0,19,0.00,,,0.00,,2013-05-03 14:01:00,
2013-05-03 07:21:00,66.0,24.0,29.95,NE,53,0.0,4.0,20,0.00,,,0.00,,2013-05-03 14:21:00,
2013-05-03 07:31:00,68.0,24.0,29.95,NE,41,0.0,1.0,19,0.00,,,0.00,,2013-05-03 14:31:00,
2013-05-03 07:52:00,70.0,33.0,29.95,NE,40,0.0,0.0,25,0.00,,,0.00,,2013-05-03 14:52:00,
2013-05-03 08:01:00,70.0,29.0,29.95,NE,40,0.0,0.0,22,0.00,,,0.00,,2013-05-03 15:01:00,
2013-05-03 08:21:00,71.0,36.0,29.95,NE,40,0.0,1.0,28,0.00,,,0.00,,2013-05-03 15:21:00,
2013-05-03 08:32:00,72.0,35.0,29.95,NE,41,0.0,1.0,26,0.00,,,0.00,,2013-05-03 15:32:00,
2013-05-03 08:53:00,74.0,39.0,29.94,NE,41,0.0,0.0,28,0.00,,,0.00,,2013-05-03 15:53:00,
2013-05-03 09:02:00,75.0,37.0,29.95,NE,41,0.0,1.0,25,0.00,,,0.00,,2013-05-03 16:02:00,
2013-05-03 09:32:00,80.0,33.0,29.93,NE,41,0.0,0.0,18,0.00,,,0.00,,2013-05-03 16:32:00,
2013-05-03 09:52:00,84.0,33.0,29.93,NE,41,0.0,0.0,16,0.00,,,0.00,,2013-05-03 16:52:00,
2013-05-03 10:22:00,88.0,31.0,29.93,NE,41,0.0,1.0,13,0.00,,,0.00,,2013-05-03 17:22:00,
2013-05-03 10:31:00,89.0,30.0,29.92,WSW,239,0.0,3.0,12,0.00,,,0.00,,2013-05-03 17:31:00,
2013-05-03 11:01:00,91.0,27.0,29.92,SW,222,0.0,5.0,10,0.00,,,0.00,,2013-05-03 18:01:00,
2013-05-03 11:21:00,91.0,18.0,29.92,SW,228,1.0,12.0,7,0.00,,,0.00,,2013-05-03 18:21:00,
2013-05-03 11:31:00,92.0,19.0,29.91,SSW,192,6.0,11.0,7,0.00,,,0.00,,2013-05-03 18:31:00,
2013-05-03 11:41:00,92.0,19.0,29.91,SSW,192,6.0,11.0,7,0.00,,,0.00,,2013-05-03 18:41:00,
2013-05-03 11:52:00,95.0,21.0,29.91,NW,321,0.0,5.0,7,0.00,,,0.00,,2013-05-03 18:52:00,
2013-05-03 12:01:00,96.0,22.0,29.90,SW,221,5.0,7.0,7,0.00,,,0.00,,2013-05-03 19:01:00,
2013-05-03 12:21:00,95.0,21.0,29.89,West,277,4.0,11.0,7,0.00,,,0.00,,2013-05-03 19:21:00,
2013-05-03 12:31:00,95.0,24.0,29.89,SW,234,2.0,10.0,8,0.00,,,0.00,,2013-05-03 19:31:00,
2013-05-03 12:41:00,95.0,24.0,29.89,SW,234,2.0,10.0,8,0.00,,,0.00,,2013-05-03 19:41:00,
2013-05-03 12:52:00,94.0,24.0,29.88,SW,230,5.0,13.0,8,0.00,,,0.00,,2013-05-03 19:52:00,
2013-05-03 13:02:00,94.0,24.0,29.88,WSW,237,2.0,13.0,8,0.00,,,0.00,,2013-05-03 20:02:00,
2013-05-03 13:11:00,94.0,24.0,29.88,WSW,237,2.0,13.0,8,0.00,,,0.00,,2013-05-03 20:11:00,
2013-05-03 13:21:00,95.0,21.0,29.88,West,260,5.0,13.0,7,0.00,,,0.00,,2013-05-03 20:21:00,
2013-05-03 13:31:00,94.0,21.0,29.87,WNW,290,6.0,12.0,7,0.00,,,0.00,,2013-05-03 20:31:00,
2013-05-03 13:41:00,94.0,21.0,29.87,WNW,290,6.0,12.0,7,0.00,,,0.00,,2013-05-03 20:41:00,
2013-05-03 13:52:00,94.0,24.0,29.87,SSW,195,5.0,11.0,8,0.00,,,0.00,,2013-05-03 20:52:00,
2013-05-03 14:01:00,94.0,21.0,29.86,SW,232,2.0,10.0,7,0.00,,,0.00,,2013-05-03 21:01:00,
2013-05-03 14:11:00,94.0,21.0,29.86,SW,232,2.0,10.0,7,0.00,,,0.00,,2013-05-03 21:11:00,
2013-05-03 14:21:00,93.0,20.0,29.86,SSW,202,4.0,13.0,7,0.00,,,0.00,,2013-05-03 21:21:00,
2013-05-03 14:32:00,93.0,20.0,29.86,WSW,249,5.0,15.0,7,0.00,,,0.00,,2013-05-03 21:32:00,
2013-05-03 14:42:00,93.0,20.0,29.86,WSW,249,5.0,15.0,7,0.00,,,0.00,,2013-05-03 21:42:00,
2013-05-03 14:52:00,92.0,22.0,29.85,SW,229,5.0,15.0,8,0.00,,,0.00,,2013-05-03 21:52:00,
2013-05-03 15:02:00,91.0,22.0,29.85,South,180,5.0,14.0,8,0.00,,,0.00,,2013-05-03 22:02:00,
2013-05-03 15:12:00,91.0,22.0,29.85,South,180,5.0,14.0,8,0.00,,,0.00,,2013-05-03 22:12:00,
2013-05-03 15:22:00,92.0,22.0,29.85,West,267,3.0,14.0,8,0.00,,,0.00,,2013-05-03 22:22:00,
2013-05-03 15:32:00,92.0,22.0,29.84,SW,222,5.0,11.0,8,0.00,,,0.00,,2013-05-03 22:32:00,
2013-05-03 15:42:00,92.0,22.0,29.84,SW,222,5.0,11.0,8,0.00,,,0.00,,2013-05-03 22:42:00,
2013-05-03 15:52:00,91.0,22.0,29.83,SW,227,5.0,12.0,8,0.00,,,0.00,,2013-05-03 22:52:00,
2013-05-03 16:01:00,91.0,22.0,29.83,SW,227,5.0,12.0,8,0.00,,,0.00,,2013-05-03 23:01:00,
2013-05-03 16:11:00,91.0,22.0,29.83,SW,227,5.0,12.0,8,0.00,,,0.00,,2013-05-03 23:11:00,
2013-05-03 16:31:00,90.0,26.0,29.82,SSW,203,4.0,14.0,10,0.00,,,0.00,,2013-05-03 23:31:00,
2013-05-03 16:41:00,90.0,26.0,29.82,SSW,203,4.0,14.0,10,0.00,,,0.00,,2013-05-03 23:41:00,
2013-05-03 16:52:00,89.0,28.0,29.82,South,185,5.0,12.0,11,0.00,,,0.00,,2013-05-03 23:52:00,
2013-05-03 17:01:00,88.0,29.0,29.81,SW,232,4.0,11.0,12,0.00,,,0.00,,2013-05-04 00:01:00,
2013-05-03 17:11:00,88.0,29.0,29.81,SW,232,4.0,11.0,12,0.00,,,0.00,,2013-05-04 00:11:00,
2013-05-03 17:22:00,87.0,26.0,29.81,SSW,206,5.0,13.0,11,0.00,,,0.00,,2013-05-04 00:22:00,
2013-05-03 17:31:00,88.0,29.0,29.81,West,260,1.0,11.0,12,0.00,,,0.00,,2013-05-04 00:31:00,
2013-05-03 17:41:00,88.0,29.0,29.81,West,260,1.0,11.0,12,0.00,,,0.00,,2013-05-04 00:41:00,
2013-05-03 17:52:00,87.0,24.0,29.80,SSW,199,6.0,9.0,10,0.00,,,0.00,,2013-05-04 00:52:00,
2013-05-03 18:01:00,86.0,27.0,29.80,SSW,201,4.0,15.0,12,0.00,,,0.00,,2013-05-04 01:01:00,
2013-05-03 18:11:00,86.0,27.0,29.80,SSW,201,4.0,15.0,12,0.00,,,0.00,,2013-05-04 01:11:00,
2013-05-03 18:21:00,86.0,29.0,29.79,SSW,210,2.0,7.0,13,0.00,,,0.00,,2013-05-04 01:21:00,
2013-05-03 18:31:00,85.0,30.0,29.79,SSW,210,0.0,5.0,14,0.00,,,0.00,,2013-05-04 01:31:00,
2013-05-03 18:41:00,85.0,30.0,29.79,SSW,210,0.0,5.0,14,0.00,,,0.00,,2013-05-04 01:41:00,
2013-05-03 18:52:00,83.0,29.0,29.79,South,180,1.0,6.0,14,0.00,,,0.00,,2013-05-04 01:52:00,
2013-05-03 19:02:00,83.0,31.0,29.79,South,176,0.0,7.0,15,0.00,,,0.00,,2013-05-04 02:02:00,
2013-05-03 19:11:00,83.0,31.0,29.79,South,176,0.0,7.0,15,0.00,,,0.00,,2013-05-04 02:11:00,
2013-05-03 19:21:00,81.0,29.0,29.78,South,187,0.0,7.0,15,0.00,,,0.00,,2013-05-04 02:21:00,
2013-05-03 19:32:00,81.0,29.0,29.78,SSW,197,0.0,5.0,15,0.00,,,0.00,,2013-05-04 02:32:00,
2013-05-03 19:41:00,81.0,29.0,29.78,SSW,197,0.0,5.0,15,0.00,,,0.00,,2013-05-04 02:41:00,
2013-05-03 19:52:00,80.0,30.0,29.78,SSW,195,0.0,1.0,16,0.00,,,0.00,,2013-05-04 02:52:00,
2013-05-03 20:01:00,78.0,31.0,29.79,SSW,196,0.0,0.0,18,0.00,,,0.00,,2013-05-04 03:01:00,
2013-05-03 20:11:00,78.0,31.0,29.79,SSW,196,0.0,0.0,18,0.00,,,0.00,,2013-05-04 03:11:00,
2013-05-03 20:21:00,77.0,30.0,29.79,SSW,198,2.0,3.0,18,0.00,,,0.00,,2013-05-04 03:21:00,
2013-05-03 20:32:00,78.0,30.0,29.79,SSW,198,0.0,3.0,17,0.00,,,0.00,,2013-05-04 03:32:00,
2013-05-03 20:42:00,78.0,30.0,29.79,SSW,198,0.0,3.0,17,0.00,,,0.00,,2013-05-04 03:42:00,
2013-05-03 20:52:00,78.0,30.0,29.79,SSW,199,0.0,1.0,17,0.00,,,0.00,,2013-05-04 03:52:00,
2013-05-03 21:02:00,77.0,27.0,29.79,SSW,199,0.0,0.0,16,0.00,,,0.00,,2013-05-04 04:02:00,
2013-05-03 21:12:00,77.0,27.0,29.79,SSW,199,0.0,0.0,16,0.00,,,0.00,,2013-05-04 04:12:00,
2013-05-03 21:22:00,74.0,30.0,29.79,SSW,200,0.0,0.0,20,0.00,,,0.00,,2013-05-04 04:22:00,
2013-05-03 21:32:00,74.0,29.0,29.79,SSE,165,0.0,3.0,19,0.00,,,0.00,,2013-05-04 04:32:00,
2013-05-03 21:42:00,74.0,29.0,29.79,SSE,165,0.0,3.0,19,0.00,,,0.00,,2013-05-04 04:42:00,
2013-05-03 21:52:00,73.0,30.0,29.79,East,87,0.0,4.0,20,0.00,,,0.00,,2013-05-04 04:52:00,
2013-05-03 22:02:00,74.0,30.0,29.79,North,360,3.0,7.0,20,0.00,,,0.00,,2013-05-04 05:02:00,
2013-05-03 22:11:00,73.0,31.0,29.79,North,10,0.0,3.0,21,0.00,,,0.00,,2013-05-04 05:11:00,
2013-05-03 22:21:00,73.0,31.0,29.79,North,10,0.0,3.0,21,0.00,,,0.00,,2013-05-04 05:21:00,
2013-05-03 22:32:00,74.0,30.0,29.79,NE,34,3.0,4.0,20,0.00,,,0.00,,2013-05-04 05:32:00,
2013-05-03 22:52:00,73.0,30.0,29.78,North,9,1.0,4.0,20,0.00,,,0.00,,2013-05-04 05:52:00,
2013-05-03 23:01:00,73.0,32.0,29.78,North,350,0.0,6.0,22,0.00,,,0.00,,2013-05-04 06:01:00,
2013-05-03 23:21:00,73.0,33.0,29.78,NNW,341,0.0,3.0,23,0.00,,,0.00,,2013-05-04 06:21:00,
2013-05-03 23:31:00,73.0,31.0,29.77,NNW,342,1.0,3.0,21,0.00,,,0.00,,2013-05-04 06:31:00,
2013-05-03 23:52:00,73.0,32.0,29.77,NNW,345,2.0,7.0,22,0.00,,,0.00,,2013-05-04 06:52:00,